createdAt,value
2022-09-17T00:01:28.517Z,1.10
2022-09-17T00:04:01.371Z,1.20
2022-09-17T00:06:27.370Z,1.00
2022-09-17T00:08:55.791Z,0.90
2022-09-17T00:11:28.426Z,0.90
2022-09-17T00:13:55.600Z,1.23
2022-09-17T00:16:44.527Z,0.90
2022-09-17T00:19:20.118Z,1.00
2022-09-17T00:21:50.678Z,1.10
2022-09-17T00:24:18.549Z,1.23
2022-09-17T00:26:44.640Z,1.17
2022-09-17T00:29:17.292Z,1.00
2022-09-17T00:31:46.948Z,1.97
2022-09-17T00:34:13.038Z,1.10
2022-09-17T00:36:39.655Z,0.90
2022-09-17T00:39:12.591Z,1.00
2022-09-17T00:41:41.989Z,1.00
2022-09-17T00:44:42.212Z,1.17
2022-09-17T00:47:15.340Z,0.90
2022-09-17T00:49:46.005Z,1.10
2022-09-17T00:52:15.681Z,1.27
2022-09-17T00:54:53.857Z,0.97
2022-09-17T00:57:23.910Z,1.00
2022-09-17T00:59:53.969Z,1.10
2022-09-17T01:02:24.592Z,0.90
2022-09-17T01:04:55.472Z,0.90
2022-09-17T01:07:52.277Z,0.90
2022-09-17T01:14:03.401Z,1.20
2022-09-17T01:16:35.969Z,0.97
2022-09-17T01:19:40.586Z,1.00
2022-09-17T01:22:23.868Z,1.40
2022-09-17T01:25:18.203Z,1.00
2022-09-17T01:28:23.947Z,0.90
2022-09-17T01:31:04.649Z,1.00
2022-09-17T01:33:51.587Z,0.90
2022-09-17T01:36:55.409Z,1.00
2022-09-17T01:39:34.087Z,1.53
2022-09-17T01:42:14.197Z,1.00
2022-09-17T01:45:14.773Z,1.80
2022-09-17T01:48:01.674Z,1.10
2022-09-17T01:50:36.340Z,0.90
2022-09-17T01:53:07.299Z,1.00
2022-09-17T01:55:38.646Z,1.10
2022-09-17T01:58:18.572Z,1.13
2022-09-17T02:00:51.567Z,2.80
2022-09-17T02:03:25.942Z,1.00
2022-09-17T02:05:55.159Z,1.10
2022-09-17T02:08:36.609Z,1.83
2022-09-17T02:11:08.449Z,3.67
2022-09-17T02:13:38.478Z,1.57
2022-09-17T02:16:13.288Z,2.03
2022-09-17T02:18:46.068Z,1.30
2022-09-17T02:21:16.874Z,3.60
2022-09-17T02:24:05.198Z,1.40
2022-09-17T02:26:38.347Z,1.10
2022-09-17T02:29:11.543Z,1.67
2022-09-17T02:31:41.777Z,1.40
2022-09-17T02:34:11.326Z,3.87
2022-09-17T02:36:41.035Z,2.60
2022-09-17T02:39:12.962Z,2.27
2022-09-17T02:41:47.176Z,6.73
2022-09-17T02:44:21.971Z,1.97
2022-09-17T02:47:38.472Z,5.33
2022-09-17T02:50:35.786Z,5.30
2022-09-17T02:53:30.953Z,2.10
2022-09-17T02:56:06.439Z,9.13
2022-09-17T02:58:59.638Z,7.87
2022-09-17T03:01:38.928Z,6.20
2022-09-17T03:04:11.970Z,5.50
2022-09-17T03:06:47.726Z,1.67
2022-09-17T03:09:17.424Z,6.83
2022-09-17T03:11:47.442Z,2.83
2022-09-17T03:14:20.883Z,2.40
2022-09-17T03:16:50.318Z,2.33
2022-09-17T03:19:20.251Z,4.50
2022-09-17T03:21:49.899Z,3.90
2022-09-17T03:24:22.339Z,5.27
2022-09-17T03:26:52.403Z,5.60
2022-09-17T03:29:22.445Z,4.70
2022-09-17T03:31:52.762Z,4.60
2022-09-17T03:34:23.718Z,2.87
2022-09-17T03:36:53.636Z,2.83
2022-09-17T03:39:23.484Z,4.80
2022-09-17T03:41:57.888Z,4.80
2022-09-17T03:44:27.634Z,6.03
2022-09-17T03:46:57.196Z,3.97
2022-09-17T03:49:26.787Z,4.13
2022-09-17T03:51:56.378Z,3.40
2022-09-17T03:54:25.838Z,2.20
2022-09-17T03:56:55.879Z,4.80
2022-09-17T03:59:31.035Z,9.97
2022-09-17T04:02:00.732Z,10.50
2022-09-17T04:04:30.672Z,9.03
2022-09-17T04:07:00.407Z,11.00
2022-09-17T04:09:30.449Z,12.93
2022-09-17T04:12:00.147Z,6.40
2022-09-17T04:14:30.276Z,7.50
2022-09-17T04:17:00.066Z,6.50
2022-09-17T04:19:29.974Z,13.60
2022-09-17T04:21:59.985Z,18.17
2022-09-17T04:24:29.465Z,13.07
2022-09-17T04:27:04.041Z,9.00
2022-09-17T04:29:33.973Z,17.63
2022-09-17T04:32:03.748Z,12.20
2022-09-17T04:34:33.624Z,12.87
2022-09-17T04:37:04.023Z,20.00
2022-09-17T04:39:33.971Z,8.00
2022-09-17T04:42:04.191Z,8.87
2022-09-17T04:44:36.763Z,9.20
2022-09-17T04:47:08.228Z,9.80
2022-09-17T04:49:38.016Z,27.67
2022-09-17T04:52:08.018Z,9.30
2022-09-17T04:54:39.242Z,25.73
2022-09-17T04:57:08.059Z,9.33
2022-09-17T04:59:37.482Z,16.73
2022-09-17T05:02:07.109Z,20.27
2022-09-17T05:04:36.202Z,9.00
2022-09-17T05:07:05.233Z,15.77
2022-09-17T05:09:34.370Z,12.50
2022-09-17T05:12:04.151Z,11.83
2022-09-17T05:14:33.756Z,19.00
2022-09-17T05:17:03.091Z,13.47
2022-09-17T05:19:31.845Z,12.73
2022-09-17T05:22:01.083Z,10.17
2022-09-17T05:24:30.512Z,20.07
2022-09-17T05:26:59.737Z,18.53
2022-09-17T05:29:28.954Z,8.30
2022-09-17T05:31:58.233Z,15.17
2022-09-17T05:34:27.802Z,16.53
2022-09-17T05:36:56.536Z,14.80
2022-09-17T05:39:25.925Z,16.87
2022-09-17T05:41:58.612Z,17.57
2022-09-17T05:44:28.379Z,18.83
2022-09-17T05:46:57.182Z,15.57
2022-09-17T05:49:26.548Z,13.73
2022-09-17T05:51:57.051Z,28.00
2022-09-17T05:54:26.501Z,10.57
2022-09-17T05:56:55.322Z,8.90
2022-09-17T05:59:25.073Z,20.50
2022-09-17T06:01:54.106Z,9.87
2022-09-17T06:04:23.341Z,14.93
2022-09-17T06:06:52.791Z,17.20
2022-09-17T06:09:22.000Z,9.80
2022-09-17T06:11:51.938Z,6.90
2022-09-17T06:14:20.371Z,11.23
2022-09-17T06:16:50.033Z,11.40
2022-09-17T06:19:22.397Z,16.33
2022-09-17T06:21:51.956Z,10.83
2022-09-17T06:24:21.657Z,15.63
2022-09-17T06:26:51.539Z,10.43
2022-09-17T06:29:22.538Z,8.70
2022-09-17T06:31:52.026Z,11.80
2022-09-17T06:34:20.700Z,13.43
2022-09-17T06:36:49.531Z,14.23
2022-09-17T06:39:18.945Z,15.60
2022-09-17T06:41:47.785Z,13.40
2022-09-17T06:44:18.004Z,13.40
2022-09-17T06:46:52.773Z,19.90
2022-09-17T06:49:18.884Z,17.17
2022-09-17T06:51:45.715Z,17.80
2022-09-17T06:54:15.689Z,8.43
2022-09-17T06:56:47.023Z,10.87
2022-09-17T06:59:16.959Z,16.57
2022-09-17T07:01:46.820Z,10.27
2022-09-17T07:04:16.738Z,12.20
2022-09-17T07:06:46.750Z,16.80
2022-09-17T07:09:16.371Z,7.47
2022-09-17T07:11:45.747Z,11.53
2022-09-17T07:14:14.631Z,12.87
2022-09-17T07:16:43.541Z,8.93
2022-09-17T07:19:14.820Z,15.47
2022-09-17T07:21:42.091Z,8.93
2022-09-17T07:24:11.387Z,10.50
2022-09-17T07:26:40.573Z,12.93
2022-09-17T07:29:09.923Z,9.77
2022-09-17T07:31:39.364Z,8.10
2022-09-17T07:34:11.975Z,15.10
2022-09-17T07:36:43.675Z,9.50
2022-09-17T07:39:12.572Z,11.50
2022-09-17T07:41:40.013Z,8.60
2022-09-17T07:44:09.199Z,11.63
2022-09-17T07:46:37.922Z,20.03
2022-09-17T07:49:06.896Z,16.10
2022-09-17T07:51:35.984Z,5.77
2022-09-17T07:54:06.478Z,8.57
2022-09-17T07:56:34.858Z,7.93
2022-09-17T07:59:04.269Z,12.93
2022-09-17T08:01:36.046Z,24.17
2022-09-17T08:04:02.805Z,10.13
2022-09-17T08:06:36.350Z,11.33
2022-09-17T08:09:03.075Z,13.17
2022-09-17T08:11:56.011Z,10.07
2022-09-17T08:14:27.021Z,15.40
2022-09-17T08:16:55.291Z,11.43
2022-09-17T08:19:25.212Z,10.83
2022-09-17T08:21:51.490Z,5.93
2022-09-17T08:24:17.481Z,7.63
2022-09-17T08:26:43.571Z,7.30
2022-09-17T08:29:13.464Z,11.00
2022-09-17T08:31:39.541Z,12.80
2022-09-17T08:34:09.199Z,9.70
2022-09-17T08:36:36.172Z,8.87
2022-09-17T08:39:07.678Z,15.80
2022-09-17T08:41:45.930Z,9.30
2022-09-17T08:44:27.337Z,6.27
2022-09-17T08:46:59.409Z,11.83
2022-09-17T08:49:41.273Z,11.30
2022-09-17T08:52:26.137Z,7.03
2022-09-17T08:55:02.604Z,10.67
2022-09-17T08:57:38.186Z,10.93
2022-09-17T09:00:17.882Z,11.10
2022-09-17T09:02:59.685Z,8.83
2022-09-17T09:05:41.643Z,9.80
2022-09-17T09:08:36.223Z,9.03
2022-09-17T09:11:12.194Z,6.20
2022-09-17T09:13:48.810Z,8.73
2022-09-17T09:16:29.061Z,5.87
2022-09-17T09:18:56.013Z,9.63
2022-09-17T09:21:47.210Z,10.97
2022-09-17T09:24:23.884Z,5.30
2022-09-17T09:27:19.509Z,3.73
2022-09-17T09:30:04.583Z,11.33
2022-09-17T09:32:44.440Z,6.43
2022-09-17T09:35:19.900Z,6.63
2022-09-17T09:37:56.117Z,10.23
2022-09-17T09:40:34.667Z,8.13
2022-09-17T09:43:13.901Z,7.73
2022-09-17T09:46:21.138Z,7.87
2022-09-17T09:49:18.708Z,7.60
2022-09-17T09:52:10.103Z,5.83
2022-09-17T09:54:47.884Z,16.70
2022-09-17T09:57:22.072Z,5.20
2022-09-17T10:00:31.922Z,6.93
2022-09-17T10:03:16.192Z,6.67
2022-09-17T10:05:53.693Z,11.93
2022-09-17T10:08:19.880Z,3.97
2022-09-17T10:11:02.294Z,11.13
2022-09-17T10:13:31.639Z,7.80
2022-09-17T10:16:21.025Z,10.73
2022-09-17T10:18:48.425Z,7.07
2022-09-17T10:21:21.824Z,10.40
2022-09-17T10:23:51.757Z,7.83
2022-09-17T10:26:29.268Z,7.80
2022-09-17T10:29:03.205Z,5.43
2022-09-17T10:31:50.399Z,7.10
2022-09-17T10:34:23.794Z,3.13
2022-09-17T10:36:55.921Z,13.50
2022-09-17T10:39:35.778Z,6.03
2022-09-17T10:42:15.856Z,7.20
2022-09-17T10:44:53.234Z,6.50
2022-09-17T10:47:30.490Z,5.73
2022-09-17T10:50:02.474Z,6.10
2022-09-17T10:52:34.849Z,4.27
2022-09-17T10:55:18.176Z,9.67
2022-09-17T10:58:01.657Z,9.90
2022-09-17T11:00:36.701Z,6.77
2022-09-17T11:03:33.631Z,5.63
2022-09-17T11:06:15.058Z,6.83
2022-09-17T11:08:50.259Z,6.10
2022-09-17T11:11:47.390Z,4.73
2022-09-17T11:14:54.733Z,4.60
2022-09-17T11:17:54.042Z,2.07
2022-09-17T11:20:43.888Z,10.40
2022-09-17T11:23:23.337Z,4.03
2022-09-17T11:25:59.843Z,4.60
2022-09-17T11:28:42.462Z,4.17
2022-09-17T11:31:26.308Z,3.20
2022-09-17T11:34:19.314Z,4.07
2022-09-17T11:36:59.750Z,9.80
2022-09-17T11:39:40.634Z,5.60
2022-09-17T11:42:15.798Z,5.50
2022-09-17T11:45:13.303Z,5.10
2022-09-17T11:47:52.999Z,3.07
2022-09-17T11:50:32.061Z,3.80
2022-09-17T11:53:13.921Z,1.80
2022-09-17T11:55:47.272Z,2.80
2022-09-17T11:58:27.183Z,4.90
2022-09-17T12:01:02.014Z,2.60
2022-09-17T12:03:43.708Z,3.90
2022-09-17T12:06:17.142Z,6.20
2022-09-17T12:09:01.423Z,5.07
2022-09-17T12:11:40.741Z,4.73
2022-09-17T12:14:26.967Z,4.50
2022-09-17T12:16:58.116Z,5.40
2022-09-17T12:19:34.021Z,4.07
2022-09-17T12:22:06.566Z,2.10
2022-09-17T12:24:37.924Z,1.90
2022-09-17T12:27:19.828Z,2.63
2022-09-17T12:29:59.544Z,1.60
2022-09-17T12:32:56.029Z,5.43
2022-09-17T12:35:46.680Z,1.20
2022-09-17T12:39:02.691Z,2.63
2022-09-17T12:41:50.045Z,3.87
2022-09-17T12:44:44.282Z,2.00
2022-09-17T12:47:31.117Z,3.93
2022-09-17T12:50:19.938Z,5.13
2022-09-17T12:52:59.373Z,2.60
2022-09-17T12:55:42.374Z,5.43
2022-09-17T12:58:17.009Z,1.50
2022-09-17T13:01:12.432Z,3.73
2022-09-17T13:03:46.584Z,1.50
2022-09-17T13:06:27.053Z,1.40
2022-09-17T13:09:34.049Z,1.80
2022-09-17T13:12:08.379Z,1.20
2022-09-17T13:15:02.347Z,2.20
2022-09-17T13:18:12.392Z,1.23
2022-09-17T13:21:03.515Z,2.80
2022-09-17T13:23:43.014Z,1.23
2022-09-17T13:26:18.458Z,4.00
2022-09-17T13:28:49.147Z,1.40
2022-09-17T13:31:39.105Z,3.53
2022-09-17T13:34:18.415Z,1.80
2022-09-17T13:36:52.299Z,1.70
2022-09-17T13:39:45.071Z,2.40
2022-09-17T13:42:28.275Z,2.47
2022-09-17T13:45:13.149Z,5.80
2022-09-17T13:48:01.686Z,2.77
2022-09-17T13:50:33.361Z,3.40
2022-09-17T13:53:08.476Z,1.37
2022-09-17T13:55:51.142Z,7.57
2022-09-17T13:58:20.807Z,3.47
2022-09-17T14:01:02.106Z,2.77
2022-09-17T14:03:43.428Z,3.60
2022-09-17T14:06:13.995Z,1.10
2022-09-17T14:08:42.818Z,3.30
2022-09-17T14:11:31.706Z,1.13
2022-09-17T14:14:09.851Z,2.13
2022-09-17T14:16:39.907Z,2.50
2022-09-17T14:19:16.082Z,1.50
2022-09-17T14:21:59.733Z,5.30
2022-09-17T14:24:33.583Z,1.70
2022-09-17T14:27:09.133Z,1.50
2022-09-17T14:29:50.987Z,6.40
2022-09-17T14:32:42.119Z,1.87
2022-09-17T14:35:32.726Z,1.87
2022-09-17T14:38:08.459Z,1.27
2022-09-17T14:40:34.728Z,1.60
2022-09-17T14:43:01.857Z,1.37
2022-09-17T14:45:33.219Z,1.53
2022-09-17T14:48:19.906Z,1.80
2022-09-17T14:50:46.059Z,1.00
2022-09-17T14:53:17.042Z,1.70
2022-09-17T14:55:47.967Z,1.40
2022-09-17T14:58:45.827Z,3.20
2022-09-17T15:01:30.369Z,2.27
2022-09-17T15:04:11.748Z,3.37
2022-09-17T15:06:41.848Z,2.07
2022-09-17T15:09:16.232Z,1.47
2022-09-17T15:11:43.222Z,1.50
2022-09-17T15:14:16.230Z,2.63
2022-09-17T15:16:48.240Z,1.33
2022-09-17T15:19:40.038Z,1.67
2022-09-17T15:22:09.691Z,1.20
2022-09-17T15:24:41.175Z,2.53
2022-09-17T15:27:20.846Z,2.80
2022-09-17T15:29:50.781Z,1.30
2022-09-17T15:32:16.963Z,2.27
2022-09-17T15:34:43.096Z,1.90
2022-09-17T15:37:20.942Z,1.00
2022-09-17T15:39:52.522Z,10.30
2022-09-17T15:42:25.918Z,1.30
2022-09-17T15:44:52.224Z,1.40
2022-09-17T15:47:49.251Z,3.00
2022-09-17T15:50:18.710Z,1.30
2022-09-17T15:52:45.043Z,1.97
2022-09-17T15:55:32.466Z,1.10
2022-09-17T15:57:59.094Z,1.83
2022-09-17T16:00:25.478Z,1.53
2022-09-17T16:02:51.817Z,1.97
2022-09-17T16:05:17.949Z,2.13
2022-09-17T16:07:44.743Z,2.00
2022-09-17T16:10:12.404Z,2.73
2022-09-17T16:12:38.495Z,1.73
2022-09-17T16:15:05.259Z,4.73
2022-09-17T16:17:34.663Z,5.23
2022-09-17T16:20:26.862Z,4.07
2022-09-17T16:22:52.959Z,1.83
2022-09-17T16:25:23.496Z,4.40
2022-09-17T16:27:57.813Z,7.87
2022-09-17T16:30:24.269Z,6.67
2022-09-17T16:32:51.217Z,6.53
2022-09-17T16:35:19.082Z,9.73
2022-09-17T16:37:52.472Z,2.33
2022-09-17T16:40:19.726Z,3.57
2022-09-17T16:42:46.033Z,6.60
2022-09-17T16:45:12.278Z,1.73
2022-09-17T16:47:39.534Z,3.30
2022-09-17T16:50:07.651Z,6.37
2022-09-17T16:52:34.435Z,2.20
2022-09-17T16:55:00.587Z,3.57
2022-09-17T16:57:26.769Z,1.63
2022-09-17T16:59:53.067Z,3.00
2022-09-17T17:02:19.068Z,3.37
2022-09-17T17:04:45.799Z,1.30
2022-09-17T17:07:11.813Z,6.83
2022-09-17T17:09:37.828Z,4.77
2022-09-17T17:12:04.019Z,4.33
2022-09-17T17:14:30.279Z,3.97
2022-09-17T17:16:56.284Z,4.47
2022-09-17T17:19:24.311Z,2.93
2022-09-17T17:21:50.856Z,8.63
2022-09-17T17:24:16.998Z,7.03
2022-09-17T17:26:42.989Z,2.90
2022-09-17T17:29:09.015Z,5.10
2022-09-17T17:31:35.457Z,4.00
2022-09-17T17:34:01.608Z,3.20
2022-09-17T17:36:27.861Z,2.77
2022-09-17T17:39:00.382Z,4.17
2022-09-17T17:41:27.556Z,1.60
2022-09-17T17:43:54.929Z,4.80
2022-09-17T17:46:22.396Z,3.50
2022-09-17T17:48:49.285Z,2.23
2022-09-17T17:51:17.890Z,2.07
2022-09-17T17:53:44.520Z,2.40
2022-09-17T17:56:11.966Z,3.30
2022-09-17T17:58:38.835Z,2.20
2022-09-17T18:01:15.042Z,3.73
2022-09-17T18:03:41.249Z,2.37
2022-09-17T18:06:08.234Z,3.47
2022-09-17T18:08:36.372Z,4.03
2022-09-17T18:11:03.465Z,2.80
2022-09-17T18:13:29.867Z,1.63
2022-09-17T18:15:58.154Z,3.00
2022-09-17T18:18:25.787Z,3.77
2022-09-17T18:20:53.266Z,2.90
2022-09-17T18:23:20.225Z,3.13
2022-09-17T18:25:56.916Z,5.80
2022-09-17T18:28:23.183Z,1.80
2022-09-17T18:30:49.597Z,2.00
2022-09-17T18:33:24.543Z,3.17
2022-09-17T18:35:56.052Z,3.60
2022-09-17T18:38:23.322Z,4.00
2022-09-17T18:40:49.929Z,4.63
2022-09-17T18:43:16.024Z,10.10
2022-09-17T18:45:42.083Z,3.90
2022-09-17T18:48:08.501Z,2.13
2022-09-17T18:50:34.880Z,8.87
2022-09-17T18:53:01.255Z,16.60
2022-09-17T18:55:28.091Z,6.47
2022-09-17T18:57:54.110Z,2.73
2022-09-17T19:00:21.337Z,11.27
2022-09-17T19:02:48.008Z,5.10
2022-09-17T19:05:15.309Z,4.67
2022-09-17T19:07:45.715Z,2.33
2022-09-17T19:10:12.606Z,6.90
2022-09-17T19:12:38.862Z,2.90
2022-09-17T19:15:05.915Z,9.10
2022-09-17T19:17:31.920Z,7.93
2022-09-17T19:19:57.925Z,2.93
2022-09-17T19:22:23.922Z,5.00
2022-09-17T19:24:49.934Z,3.40
2022-09-17T19:27:15.992Z,5.17
2022-09-17T19:29:42.032Z,6.03
2022-09-17T19:32:08.117Z,4.93
2022-09-17T19:34:34.146Z,3.47
2022-09-17T19:37:00.144Z,4.33
2022-09-17T19:39:26.164Z,2.57
2022-09-17T19:41:52.173Z,5.87
2022-09-17T19:44:18.292Z,2.67
2022-09-17T19:46:44.472Z,3.63
2022-09-17T19:49:10.582Z,8.40
2022-09-17T19:51:37.740Z,4.13
2022-09-17T19:54:05.963Z,6.00
2022-09-17T19:56:32.040Z,3.77
2022-09-17T19:58:58.145Z,9.33
2022-09-17T20:01:24.495Z,6.07
2022-09-17T20:03:52.408Z,5.37
2022-09-17T20:06:20.142Z,4.13
2022-09-17T20:08:51.295Z,6.03
2022-09-17T20:11:19.119Z,2.73
2022-09-17T20:13:45.218Z,3.43
2022-09-17T20:16:14.106Z,18.40
2022-09-17T20:18:40.334Z,5.70
2022-09-17T20:21:14.839Z,6.00
2022-09-17T20:23:41.179Z,6.17
2022-09-17T20:26:07.461Z,2.40
2022-09-17T20:28:33.925Z,7.27
2022-09-17T20:31:01.781Z,6.30
2022-09-17T20:33:28.173Z,9.80
2022-09-17T20:36:01.137Z,5.07
2022-09-17T20:41:13.989Z,4.90
2022-09-17T20:43:48.521Z,5.00
2022-09-17T20:46:15.458Z,8.40
2022-09-17T20:48:42.202Z,5.40
2022-09-17T20:51:16.510Z,3.03
2022-09-17T20:53:43.209Z,11.23
2022-09-17T20:56:17.657Z,5.77
2022-09-17T20:58:47.998Z,4.30
2022-09-17T21:01:19.718Z,4.70
2022-09-17T21:03:50.422Z,5.63
2022-09-17T21:06:17.088Z,3.67
2022-09-17T21:08:43.839Z,4.77
2022-09-17T21:11:09.924Z,3.80
2022-09-17T21:13:36.257Z,7.70
2022-09-17T21:16:03.778Z,6.50
2022-09-17T21:18:30.041Z,5.70
2022-09-17T21:20:56.219Z,5.77
2022-09-17T21:23:24.065Z,3.93
2022-09-17T21:25:50.282Z,5.30
2022-09-17T21:28:19.704Z,5.10
2022-09-17T21:30:47.331Z,2.43
2022-09-17T21:33:21.188Z,4.77
2022-09-17T21:35:49.720Z,11.00
2022-09-17T21:38:18.666Z,3.00
2022-09-17T21:40:56.932Z,6.37
2022-09-17T21:43:23.463Z,4.03
2022-09-17T21:45:58.847Z,2.70
2022-09-17T21:48:25.332Z,5.17
2022-09-17T21:50:51.495Z,6.00
2022-09-17T21:53:17.550Z,11.63
2022-09-17T21:55:43.533Z,10.07
2022-09-17T21:58:09.534Z,9.20
2022-09-17T22:00:36.553Z,7.30
2022-09-17T22:03:02.916Z,5.40
2022-09-17T22:05:28.926Z,9.20
2022-09-17T22:07:54.937Z,7.70
2022-09-17T22:10:20.979Z,6.43
2022-09-17T22:12:47.009Z,3.43
2022-09-17T22:15:13.904Z,4.63
2022-09-17T22:17:39.911Z,6.67
2022-09-17T22:20:06.469Z,18.70
2022-09-17T22:22:32.463Z,4.30
2022-09-17T22:24:59.016Z,3.13
2022-09-17T22:27:25.211Z,4.60
2022-09-17T22:29:51.348Z,5.90
2022-09-17T22:32:17.385Z,2.50
2022-09-17T22:34:43.416Z,5.63
2022-09-17T22:37:09.411Z,3.40
2022-09-17T22:39:35.415Z,12.33
2022-09-17T22:42:01.421Z,4.17
2022-09-17T22:44:27.773Z,2.63
2022-09-17T22:46:53.926Z,4.83
2022-09-17T22:49:20.040Z,6.47
2022-09-17T22:51:46.556Z,3.67
2022-09-17T22:54:14.359Z,5.57
2022-09-17T22:56:41.334Z,8.00
2022-09-17T22:59:07.669Z,2.73
2022-09-17T23:01:35.533Z,4.57
2022-09-17T23:04:02.622Z,6.67
2022-09-17T23:06:31.613Z,7.67
2022-09-17T23:08:58.550Z,4.93
2022-09-17T23:11:26.947Z,6.77
2022-09-17T23:13:56.864Z,3.70
2022-09-17T23:16:23.684Z,3.50
2022-09-17T23:18:49.929Z,8.73
2022-09-17T23:21:17.746Z,6.83
2022-09-17T23:23:45.984Z,5.10
2022-09-17T23:26:18.390Z,3.10
2022-09-17T23:28:44.721Z,4.50
2022-09-17T23:31:23.516Z,7.03
2022-09-17T23:33:50.024Z,5.87
2022-09-17T23:36:18.788Z,3.00
2022-09-17T23:38:45.920Z,6.43
2022-09-17T23:41:18.448Z,5.50
2022-09-17T23:43:46.946Z,6.30
2022-09-17T23:46:13.383Z,4.17
2022-09-17T23:48:39.611Z,4.83
2022-09-17T23:51:06.321Z,7.20
2022-09-17T23:53:33.918Z,3.50
2022-09-17T23:56:00.348Z,6.07
2022-09-17T23:58:30.312Z,6.40
